Ammon, ID (83406)

9:58 PM MDT on March 28, 2015 (GMT -0600)
old Ammon | | Change Station
CLOSE
Current Station
Personal Weather Station
Location: Ammon, ID
Elevation: 4718 ft
Nearby Weather Stations

Elev 4718 ft 43.47 °N, 111.97 °W | Updated 28 seconds ago

Mostly Cloudy
Mostly Cloudy
47.8 °F
Feels Like 46 °F
N
4.0
Wind Variable Wind from South
Gusts 6.0 mph

Today
High -- | Low -- °F
--% Chance of Precip.
Yesterday
High -- | Low -- °F
Precip. -- in
7:17 AM 7:49 PM
Waxing Gibbous, 68% visible
Pressure 30.15 in
Visibility 10.0 miles
Clouds Clear
Windchill 46 °F
Dew Point 22 °F
Humidity 36%
Rainfall 0.00 in
Snow Depth Not available.
UV 0 out of 12
Pollen 9.10 out of 12
Air Quality Not available.
Flu Activity Not available.
METAR KIDA 290253Z AUTO 21015G26KT 10SM CLR 10/M06 A3019 RMK AO2 PK WND 22028/0155 PRESRR SLP209 T01001061 53025

More Conditions Fewer Conditions

Pressure 30.15 in
Visibility 10.0 miles
Clouds Clear
Windchill 46 °F
Dew Point 22 °F
Humidity 36%
Rainfall 0.00 in
Snow Depth Not available.
UV 0 out of 12
Pollen 9.10 out of 12
Air Quality Not available.
Flu Activity Not available.
METAR KIDA 290253Z AUTO 21015G26KT 10SM CLR 10/M06 A3019 RMK AO2 PK WND 22028/0155 PRESRR SLP209 T01001061 53025

More Conditions Fewer Conditions

10-Day Weather Forecast

Almanac

Astronomy

Mar. 28, 2015 Rise Set
Actual Time
Civil Twilight
Nautical Twilight
Astronomical Twilight
Moon
Length of Visible Light
Length of Day
Tomorrow will be .
, % of the Moon is Illuminated

Today's Extremes

State Highs State Lows

Community

WunderPhotos

Upload Photos

1,809,177 photos uploaded!

WunderBlogs® & News

Nearby

Air Quality

  Air Quality AQ Index Pollutant
Not available.

Snow Depth

Station Depth Elevation

Earthquake Activity

City Distance Mag. Time & Date
Minimum magnitude displayed is 2.5.

Coastal Water Temperatures

Place Temperature

Stations

Nearby Weather Stations

Station Location Temp. Windchill Dew Point Humidity Wind Precip. Elev Updated Type